Healy, Alaska
Current Conditions -  °F | °C
As of 2:36 AM on Saturday 20 Dec 2014 (Local Time) from PAIN Reporting Station
Overcast Overcast  
Wind Chill:   Ceiling: 9000
Heat Index:   Visibility: 10mi
Dew Point:   Wind: 0mph
Humidity: 92%   Direction: NA
Pressure: 29.09"   Gusts: NA
Location:  63.85°N, 148.98°W
Report Text: PAIN 201136Z AUTO 00000KT 10SM OVC090 M13/M14 A2909 RMK AO1
Loading
Personal Weather Stations






























Interactive Weather Map New forecast layout! Learn more

10-Day Weather Forecast

Advertisements
Track Severe Weather on mobile